Home > Products > Valid Products > TAF

000
FTUS43 KGID 290540
TAFGRI
TAF
KGRI 290540Z 2906/3006 25007KT P6SM BKN250
     FM300500 28012KT P6SM FEW030 SCT100 BKN250=



000
FTUS43 KGID 290540
TAFGRI
TAF
KGRI 290540Z 2906/3006 25007KT P6SM BKN250
     FM300500 28012KT P6SM FEW030 SCT100 BKN250=



000
FTUS43 KGID 282338
TAFGRI
TAF
KGRI 282338Z 2900/2924 25007KT P6SM BKN250=



000
FTUS43 KGID 282338
TAFGRI
TAF
KGRI 282338Z 2900/2924 25007KT P6SM BKN250=



000
FTUS43 KGID 281720
TAFGRI
TAF
KGRI 281720Z 2818/2918 23010KT P6SM SCT250=



000
FTUS43 KGID 281720
TAFGRI
TAF
KGRI 281720Z 2818/2918 23010KT P6SM SCT250=



000
FTUS43 KGID 281120
TAFGRI
TAF
KGRI 281120Z 2812/2912 23008KT P6SM SCT250=



000
FTUS43 KGID 281120
TAFGRI
TAF
KGRI 281120Z 2812/2912 23008KT P6SM SCT250=



000
FTUS43 KGID 280520
TAFGRI
TAF
KGRI 280520Z 2806/2906 18008KT P6SM SKC
     FM281300 23008KT P6SM SCT250=



000
FTUS43 KGID 280520
TAFGRI
TAF
KGRI 280520Z 2806/2906 18008KT P6SM SKC
     FM281300 23008KT P6SM SCT250=



000
FTUS43 KGID 272339
TAFGRI
TAF
KGRI 272339Z 2800/2824 17011KT P6SM SCT150=



000
FTUS43 KGID 272339
TAFGRI
TAF
KGRI 272339Z 2800/2824 17011KT P6SM SCT150=



000
FTUS43 KGID 271722
TAFGRI
TAF
KGRI 271722Z 2718/2818 16014G21KT P6SM SCT150
     FM272300 16010KT P6SM SCT150
     FM280600 19007KT P6SM SKC
     FM281000 23008KT P6SM SKC=



000
FTUS43 KGID 271722
TAFGRI
TAF
KGRI 271722Z 2718/2818 16014G21KT P6SM SCT150
     FM272300 16010KT P6SM SCT150
     FM280600 19007KT P6SM SKC
     FM281000 23008KT P6SM SKC=



000
FTUS43 KGID 271125
TAFGRI
TAF
KGRI 271125Z 2712/2812 13008KT P6SM FEW030 OVC080
     FM271700 17014G20KT P6SM SCT100
     FM272300 16010KT P6SM FEW150
     FM280600 21008KT P6SM SKC=



000
FTUS43 KGID 271125
TAFGRI
TAF
KGRI 271125Z 2712/2812 13008KT P6SM FEW030 OVC080
     FM271700 17014G20KT P6SM SCT100
     FM272300 16010KT P6SM FEW150
     FM280600 21008KT P6SM SKC=



000
FTUS43 KGID 270539
TAFGRI
TAF
KGRI 270539Z 2706/2806 VRB05KT P6SM SCT060 BKN100
     FM271300 14008KT P6SM BKN060
     FM271700 17014G20KT P6SM SCT150
     FM272300 16010KT P6SM SCT200=



000
FTUS43 KGID 270539
TAFGRI
TAF
KGRI 270539Z 2706/2806 VRB05KT P6SM SCT060 BKN100
     FM271300 14008KT P6SM BKN060
     FM271700 17014G20KT P6SM SCT150
     FM272300 16010KT P6SM SCT200=



000
FTUS43 KGID 262320
TAFGRI
TAF
KGRI 262320Z 2700/2724 32011KT P6SM SCT150 BKN250
     FM271900 17012KT P6SM SCT250=



000
FTUS43 KGID 262320
TAFGRI
TAF
KGRI 262320Z 2700/2724 32011KT P6SM SCT150 BKN250
     FM271900 17012KT P6SM SCT250=



000
FTUS43 KGID 261720
TAFGRI
TAF
KGRI 261720Z 2618/2718 34021G29KT P6SM OVC020
     FM262100 34018G26KT P6SM OVC025
     FM270200 VRB06KT P6SM SCT030 BKN100
     FM271600 15011KT P6SM BKN150=



000
FTUS43 KGID 261720
TAFGRI
TAF
KGRI 261720Z 2618/2718 34021G29KT P6SM OVC020
     FM262100 34018G26KT P6SM OVC025
     FM270200 VRB06KT P6SM SCT030 BKN100
     FM271600 15011KT P6SM BKN150=



000
FTUS43 KGID 261127 CCA
TAFGRI
TAF COR
KGRI 261127Z 2612/2712 33023G33KT P6SM BKN025
     FM261800 34016G24KT P6SM BKN150
     FM270000 VRB04KT P6SM SCT050 BKN100=



000
FTUS43 KGID 261127 CCA
TAFGRI
TAF COR
KGRI 261127Z 2612/2712 33023G33KT P6SM BKN025
     FM261800 34016G24KT P6SM BKN150
     FM270000 VRB04KT P6SM SCT050 BKN100=



000
FTUS43 KGID 261120
TAFGRI
TAF
KGRI 261120Z 2612/2712 34023G33KT P6SM BKN025
     FM261800 34016G24KT P6SM BKN150
     FM270000 VRB04KT P6SM SCT050 BKN100=



000
FTUS43 KGID 261120
TAFGRI
TAF
KGRI 261120Z 2612/2712 34023G33KT P6SM BKN025
     FM261800 34016G24KT P6SM BKN150
     FM270000 VRB04KT P6SM SCT050 BKN100=



    US Dept of Commerce
    National Oceanic and Atmospheric Administration
    National Weather Service
    1325 East West Highway
    Silver Spring, MD 20910
    Page Author: NWS Internet Services Team
Disclaimer
Information Quality
Credits
Glossary
Privacy Policy
Freedom of Information Act (FOIA)
About Us
Career Opportunities